createdAt,value
2022-09-15T00:00:36.181Z,2.20
2022-09-15T00:11:07.863Z,4.45
2022-09-15T00:21:14.131Z,3.42
2022-09-15T00:31:19.930Z,1.70
2022-09-15T00:41:23.658Z,3.22
2022-09-15T00:51:37.189Z,5.30
2022-09-15T01:01:41.972Z,2.38
2022-09-15T01:11:44.938Z,2.17
2022-09-15T01:21:55.641Z,1.42
2022-09-15T01:32:27.513Z,1.50
2022-09-15T01:42:32.364Z,0.65
2022-09-15T01:52:34.852Z,0.80
2022-09-15T02:02:46.676Z,0.70
2022-09-15T02:12:57.790Z,0.40
2022-09-15T02:23:08.585Z,0.77
2022-09-15T02:33:16.640Z,0.70
2022-09-15T02:43:19.432Z,0.40
2022-09-15T02:53:21.530Z,0.40
2022-09-15T03:03:23.945Z,0.50
2022-09-15T03:13:26.300Z,0.82
2022-09-15T03:23:28.890Z,1.80
2022-09-15T03:33:31.517Z,2.10
2022-09-15T03:43:34.991Z,2.03
2022-09-15T03:53:39.652Z,1.80
2022-09-15T04:03:46.315Z,1.10
2022-09-15T04:13:50.539Z,0.80
2022-09-15T04:23:53.583Z,0.70
2022-09-15T04:33:56.184Z,0.73
2022-09-15T04:43:58.696Z,0.70
2022-09-15T04:54:00.785Z,0.93
2022-09-15T05:04:04.204Z,0.90
2022-09-15T05:14:08.180Z,0.85
2022-09-15T05:24:10.305Z,0.85
2022-09-15T05:34:12.490Z,3.05
2022-09-15T05:44:14.677Z,2.22
2022-09-15T05:54:16.793Z,1.92
2022-09-15T06:04:18.861Z,3.80
2022-09-15T06:14:21.083Z,6.05
2022-09-15T06:24:23.193Z,4.43
2022-09-15T06:34:25.273Z,4.25
2022-09-15T06:44:27.813Z,4.85
2022-09-15T06:54:29.899Z,4.65
2022-09-15T07:04:32.081Z,5.70
2022-09-15T07:14:34.162Z,7.00
2022-09-15T07:24:36.208Z,5.55
2022-09-15T07:34:38.345Z,4.55
2022-09-15T07:44:40.451Z,4.60
2022-09-15T07:54:42.529Z,3.70
2022-09-15T08:04:44.705Z,5.18
2022-09-15T08:14:46.820Z,4.10
2022-09-15T08:24:49.376Z,4.43
2022-09-15T08:34:51.505Z,4.05
2022-09-15T08:45:00.562Z,4.97
2022-09-15T08:55:13.022Z,4.40
2022-09-15T09:05:30.451Z,4.03
2022-09-15T09:15:57.650Z,4.03
2022-09-15T09:26:02.267Z,4.80
2022-09-15T09:36:04.545Z,4.10
2022-09-15T09:46:16.629Z,3.47
2022-09-15T09:56:27.038Z,2.97
2022-09-15T10:06:31.078Z,2.30
2022-09-15T10:16:33.629Z,2.40
2022-09-15T10:26:36.263Z,1.70
2022-09-15T10:36:38.419Z,2.22
2022-09-15T10:46:46.520Z,1.95
2022-09-15T10:56:52.513Z,1.30
2022-09-15T11:07:31.041Z,1.83
2022-09-15T11:17:54.822Z,1.90
2022-09-15T11:28:25.353Z,2.28
2022-09-15T11:38:48.958Z,1.25
2022-09-15T11:49:17.373Z,1.40
2022-09-15T11:59:44.215Z,2.85
2022-09-15T12:09:48.313Z,5.30
2022-09-15T12:20:02.679Z,2.25
2022-09-15T12:30:06.314Z,3.72
2022-09-15T12:40:30.588Z,3.35
2022-09-15T12:50:43.501Z,2.83
2022-09-15T13:01:07.206Z,1.88
2022-09-15T13:11:19.651Z,2.00
2022-09-15T13:21:24.181Z,2.33
2022-09-15T13:31:39.026Z,1.83
2022-09-15T13:41:43.009Z,2.65
2022-09-15T13:51:55.468Z,2.40
2022-09-15T14:01:59.707Z,3.05
2022-09-15T14:12:15.134Z,3.85
2022-09-15T14:22:20.260Z,3.25
2022-09-15T14:32:22.451Z,2.88
2022-09-15T14:42:40.716Z,3.28
2022-09-15T15:03:01.048Z,2.92
2022-09-15T15:13:16.350Z,2.58
2022-09-15T15:23:28.054Z,2.42
2022-09-15T15:33:30.291Z,2.00
2022-09-15T15:43:32.496Z,2.33
2022-09-15T15:53:35.070Z,2.45
2022-09-15T16:03:37.208Z,3.58
2022-09-15T16:13:39.954Z,3.58
2022-09-15T16:23:42.186Z,3.05
2022-09-15T16:33:44.447Z,4.05
2022-09-15T16:43:47.251Z,2.22
2022-09-15T16:53:51.233Z,2.13
2022-09-15T17:03:53.319Z,1.65
2022-09-15T17:13:55.513Z,1.30
2022-09-15T17:23:57.631Z,1.48
2022-09-15T17:34:01.034Z,1.80
2022-09-15T17:44:03.378Z,1.70
2022-09-15T17:54:07.512Z,1.77
2022-09-15T18:04:11.324Z,2.20
2022-09-15T18:14:13.479Z,1.98
2022-09-15T18:24:15.572Z,1.50
2022-09-15T18:34:17.718Z,1.55
2022-09-15T18:44:19.818Z,2.58
2022-09-15T18:54:21.992Z,1.50
2022-09-15T19:04:27.292Z,1.70
2022-09-15T19:14:32.074Z,1.37
2022-09-15T19:24:34.323Z,1.30
2022-09-15T19:34:38.635Z,2.13
2022-09-15T19:44:41.955Z,1.77
2022-09-15T19:54:44.434Z,2.00
2022-09-15T20:15:04.708Z,2.25
2022-09-15T20:25:07.082Z,2.47
2022-09-15T20:35:09.300Z,1.95
2022-09-15T20:45:11.669Z,1.85
2022-09-15T20:55:13.914Z,2.80
2022-09-15T21:05:16.095Z,2.10
2022-09-15T21:15:18.492Z,2.17
2022-09-15T21:25:21.209Z,2.03
2022-09-15T21:35:23.349Z,2.35
2022-09-15T21:45:25.534Z,1.73
2022-09-15T21:55:27.692Z,2.03
2022-09-15T22:10:05.168Z,1.88
2022-09-15T22:20:09.424Z,1.95
2022-09-15T22:30:12.440Z,2.30
2022-09-15T22:40:14.651Z,2.30
2022-09-15T22:50:16.877Z,2.08
2022-09-15T23:00:20.431Z,2.20
2022-09-15T23:10:22.623Z,2.10
2022-09-15T23:20:24.815Z,2.00
2022-09-15T23:30:26.899Z,2.28
2022-09-15T23:40:29.826Z,1.80
2022-09-15T23:50:32.701Z,1.90
